Dalton, Ohio
Current Conditions -  °F | °C
As of 4:56 PM on Monday 22 Dec 2014 (Local Time) from KBJJ Reporting Station
Clear Clear  
Wind Chill: 34°   Ceiling: Unl
Heat Index: 39°   Visibility: 8mi
Dew Point: 32°   Wind: 7mph
Humidity: 76%   Direction: 100°E
Pressure: 29.93"   Gusts: NA
Location:  40.8°N, 81.7°W
Report Text: KBJJ 222156Z AUTO 10006KT 8SM CLR 04/00 A2993 RMK AO2 SLP149 T00390000 TSNO
Loading
Personal Weather Stations






























Interactive Weather Map New forecast layout! Learn more

10-Day Weather Forecast

Advertisements
Track Severe Weather on mobile